sensor_id;sensor_type;location;lat;lon;timestamp;P1;durP1;ratioP1;P2;durP2;ratioP2
5981;SDS011;3018;48.730;9.336;2022-08-11T00:01:47;1.35;;;1.23;;
5981;SDS011;3018;48.730;9.336;2022-08-11T00:04:14;1.40;;;1.30;;
5981;SDS011;3018;48.730;9.336;2022-08-11T00:06:41;1.75;;;1.30;;
5981;SDS011;3018;48.730;9.336;2022-08-11T00:09:09;2.13;;;1.50;;
5981;SDS011;3018;48.730;9.336;2022-08-11T00:11:39;1.70;;;1.60;;
5981;SDS011;3018;48.730;9.336;2022-08-11T00:14:12;2.80;;;1.42;;
5981;SDS011;3018;48.730;9.336;2022-08-11T00:16:38;2.58;;;1.50;;
5981;SDS011;3018;48.730;9.336;2022-08-11T00:19:05;1.63;;;1.52;;
5981;SDS011;3018;48.730;9.336;2022-08-11T00:21:32;2.13;;;1.40;;
5981;SDS011;3018;48.730;9.336;2022-08-11T00:24:05;2.28;;;1.38;;
5981;SDS011;3018;48.730;9.336;2022-08-11T00:26:32;1.20;;;1.20;;
5981;SDS011;3018;48.730;9.336;2022-08-11T00:29:07;3.35;;;1.35;;
5981;SDS011;3018;48.730;9.336;2022-08-11T00:31:34;2.85;;;1.65;;
5981;SDS011;3018;48.730;9.336;2022-08-11T00:34:01;1.45;;;1.35;;
5981;SDS011;3018;48.730;9.336;2022-08-11T00:36:28;2.17;;;1.50;;
5981;SDS011;3018;48.730;9.336;2022-08-11T00:39:03;1.52;;;1.50;;
5981;SDS011;3018;48.730;9.336;2022-08-11T00:41:31;1.77;;;1.75;;
5981;SDS011;3018;48.730;9.336;2022-08-11T00:44:06;2.30;;;1.60;;
5981;SDS011;3018;48.730;9.336;2022-08-11T00:46:36;2.33;;;1.48;;
5981;SDS011;3018;48.730;9.336;2022-08-11T00:49:08;1.52;;;1.42;;
5981;SDS011;3018;48.730;9.336;2022-08-11T00:51:42;1.85;;;1.75;;
5981;SDS011;3018;48.730;9.336;2022-08-11T00:54:18;2.45;;;1.75;;
5981;SDS011;3018;48.730;9.336;2022-08-11T00:57:06;1.52;;;1.52;;
5981;SDS011;3018;48.730;9.336;2022-08-11T00:59:47;3.65;;;1.52;;
5981;SDS011;3018;48.730;9.336;2022-08-11T01:02:19;5.18;;;1.67;;
5981;SDS011;3018;48.730;9.336;2022-08-11T01:07:49;1.92;;;1.85;;
5981;SDS011;3018;48.730;9.336;2022-08-11T01:10:35;1.88;;;1.80;;
5981;SDS011;3018;48.730;9.336;2022-08-11T01:13:07;1.33;;;1.30;;
5981;SDS011;3018;48.730;9.336;2022-08-11T01:15:48;1.60;;;1.50;;
5981;SDS011;3018;48.730;9.336;2022-08-11T01:21:19;1.80;;;1.70;;
5981;SDS011;3018;48.730;9.336;2022-08-11T01:24:12;1.77;;;1.67;;
5981;SDS011;3018;48.730;9.336;2022-08-11T01:29:33;1.77;;;1.75;;
5981;SDS011;3018;48.730;9.336;2022-08-11T01:32:32;1.75;;;1.67;;
5981;SDS011;3018;48.730;9.336;2022-08-11T01:38:00;1.92;;;1.83;;
5981;SDS011;3018;48.730;9.336;2022-08-11T01:40:46;3.08;;;1.60;;
5981;SDS011;3018;48.730;9.336;2022-08-11T01:43:31;1.77;;;1.50;;
5981;SDS011;3018;48.730;9.336;2022-08-11T01:46:24;3.80;;;1.95;;
5981;SDS011;3018;48.730;9.336;2022-08-11T01:48:56;1.80;;;1.70;;
5981;SDS011;3018;48.730;9.336;2022-08-11T01:51:32;1.88;;;1.67;;
5981;SDS011;3018;48.730;9.336;2022-08-11T01:54:02;2.13;;;1.63;;
5981;SDS011;3018;48.730;9.336;2022-08-11T01:56:32;1.88;;;1.75;;
5981;SDS011;3018;48.730;9.336;2022-08-11T01:59:05;1.90;;;1.80;;
5981;SDS011;3018;48.730;9.336;2022-08-11T02:01:37;1.88;;;1.63;;
5981;SDS011;3018;48.730;9.336;2022-08-11T02:04:08;1.80;;;1.80;;
5981;SDS011;3018;48.730;9.336;2022-08-11T02:06:40;1.80;;;1.80;;
5981;SDS011;3018;48.730;9.336;2022-08-11T02:09:32;1.77;;;1.67;;
5981;SDS011;3018;48.730;9.336;2022-08-11T02:12:09;1.33;;;1.30;;
5981;SDS011;3018;48.730;9.336;2022-08-11T02:14:38;2.42;;;1.98;;
5981;SDS011;3018;48.730;9.336;2022-08-11T02:17:10;2.40;;;1.85;;
5981;SDS011;3018;48.730;9.336;2022-08-11T02:19:41;1.95;;;1.95;;
5981;SDS011;3018;48.730;9.336;2022-08-11T02:22:29;1.88;;;1.77;;
5981;SDS011;3018;48.730;9.336;2022-08-11T02:25:19;2.03;;;1.80;;
5981;SDS011;3018;48.730;9.336;2022-08-11T02:27:47;3.22;;;1.63;;
5981;SDS011;3018;48.730;9.336;2022-08-11T02:30:15;2.00;;;1.85;;
5981;SDS011;3018;48.730;9.336;2022-08-11T02:32:45;1.73;;;1.73;;
5981;SDS011;3018;48.730;9.336;2022-08-11T02:35:39;2.10;;;2.00;;
5981;SDS011;3018;48.730;9.336;2022-08-11T02:38:13;2.15;;;1.80;;
5981;SDS011;3018;48.730;9.336;2022-08-11T02:40:46;1.67;;;1.55;;
5981;SDS011;3018;48.730;9.336;2022-08-11T02:43:18;2.58;;;2.13;;
5981;SDS011;3018;48.730;9.336;2022-08-11T02:45:50;2.60;;;2.40;;
5981;SDS011;3018;48.730;9.336;2022-08-11T02:48:28;2.65;;;1.98;;
5981;SDS011;3018;48.730;9.336;2022-08-11T02:51:13;2.78;;;2.10;;
5981;SDS011;3018;48.730;9.336;2022-08-11T02:53:43;2.38;;;2.17;;
5981;SDS011;3018;48.730;9.336;2022-08-11T02:56:15;2.00;;;1.90;;
5981;SDS011;3018;48.730;9.336;2022-08-11T02:58:48;2.55;;;2.10;;
5981;SDS011;3018;48.730;9.336;2022-08-11T03:01:35;3.80;;;2.40;;
5981;SDS011;3018;48.730;9.336;2022-08-11T03:04:05;2.08;;;1.92;;
5981;SDS011;3018;48.730;9.336;2022-08-11T03:06:34;2.28;;;2.17;;
5981;SDS011;3018;48.730;9.336;2022-08-11T03:09:02;3.00;;;2.00;;
5981;SDS011;3018;48.730;9.336;2022-08-11T03:11:45;2.80;;;2.50;;
5981;SDS011;3018;48.730;9.336;2022-08-11T03:14:32;2.20;;;2.05;;
5981;SDS011;3018;48.730;9.336;2022-08-11T03:17:24;2.15;;;1.92;;
5981;SDS011;3018;48.730;9.336;2022-08-11T03:19:58;2.00;;;1.90;;
5981;SDS011;3018;48.730;9.336;2022-08-11T03:22:29;9.10;;;2.70;;
5981;SDS011;3018;48.730;9.336;2022-08-11T03:24:59;2.25;;;1.95;;
5981;SDS011;3018;48.730;9.336;2022-08-11T03:27:32;2.40;;;2.30;;
5981;SDS011;3018;48.730;9.336;2022-08-11T03:30:03;2.38;;;2.20;;
5981;SDS011;3018;48.730;9.336;2022-08-11T03:32:31;2.85;;;2.30;;
5981;SDS011;3018;48.730;9.336;2022-08-11T03:34:59;1.90;;;1.90;;
5981;SDS011;3018;48.730;9.336;2022-08-11T03:37:28;2.30;;;2.20;;
5981;SDS011;3018;48.730;9.336;2022-08-11T03:40:22;2.05;;;1.95;;
5981;SDS011;3018;48.730;9.336;2022-08-11T03:43:10;2.60;;;2.50;;
5981;SDS011;3018;48.730;9.336;2022-08-11T03:45:46;2.63;;;2.50;;
5981;SDS011;3018;48.730;9.336;2022-08-11T03:48:16;2.60;;;2.50;;
5981;SDS011;3018;48.730;9.336;2022-08-11T03:51:02;2.70;;;2.50;;
5981;SDS011;3018;48.730;9.336;2022-08-11T03:53:35;2.45;;;2.30;;
5981;SDS011;3018;48.730;9.336;2022-08-11T04:04:28;2.67;;;2.45;;
5981;SDS011;3018;48.730;9.336;2022-08-11T04:12:27;2.45;;;2.35;;
5981;SDS011;3018;48.730;9.336;2022-08-11T04:15:10;2.63;;;2.42;;
5981;SDS011;3018;48.730;9.336;2022-08-11T04:18:03;2.63;;;2.53;;
5981;SDS011;3018;48.730;9.336;2022-08-11T04:23:41;2.65;;;2.42;;
5981;SDS011;3018;48.730;9.336;2022-08-11T04:26:20;2.83;;;2.20;;
5981;SDS011;3018;48.730;9.336;2022-08-11T04:29:05;2.60;;;2.50;;
5981;SDS011;3018;48.730;9.336;2022-08-11T04:31:36;4.97;;;2.60;;
5981;SDS011;3018;48.730;9.336;2022-08-11T04:34:04;4.22;;;2.70;;
5981;SDS011;3018;48.730;9.336;2022-08-11T04:36:35;3.92;;;2.42;;
5981;SDS011;3018;48.730;9.336;2022-08-11T04:39:24;4.65;;;2.58;;
5981;SDS011;3018;48.730;9.336;2022-08-11T04:42:12;3.10;;;2.50;;
5981;SDS011;3018;48.730;9.336;2022-08-11T04:45:07;3.20;;;2.80;;
5981;SDS011;3018;48.730;9.336;2022-08-11T04:47:43;4.65;;;2.95;;
5981;SDS011;3018;48.730;9.336;2022-08-11T04:50:35;2.85;;;2.75;;
5981;SDS011;3018;48.730;9.336;2022-08-11T04:53:25;2.50;;;2.40;;
5981;SDS011;3018;48.730;9.336;2022-08-11T04:56:15;2.70;;;2.45;;
5981;SDS011;3018;48.730;9.336;2022-08-11T04:59:07;2.63;;;2.50;;
5981;SDS011;3018;48.730;9.336;2022-08-11T05:02:09;4.50;;;2.60;;
5981;SDS011;3018;48.730;9.336;2022-08-11T05:04:55;2.72;;;2.63;;
5981;SDS011;3018;48.730;9.336;2022-08-11T05:10:27;3.15;;;2.95;;
5981;SDS011;3018;48.730;9.336;2022-08-11T05:13:02;2.58;;;2.47;;
5981;SDS011;3018;48.730;9.336;2022-08-11T05:15:45;3.20;;;2.85;;
5981;SDS011;3018;48.730;9.336;2022-08-11T05:18:29;3.25;;;2.78;;
5981;SDS011;3018;48.730;9.336;2022-08-11T05:21:14;5.97;;;2.70;;
5981;SDS011;3018;48.730;9.336;2022-08-11T05:24:02;2.60;;;2.47;;
5981;SDS011;3018;48.730;9.336;2022-08-11T05:26:48;3.55;;;2.75;;
5981;SDS011;3018;48.730;9.336;2022-08-11T05:29:39;3.90;;;2.70;;
5981;SDS011;3018;48.730;9.336;2022-08-11T05:32:23;5.47;;;3.28;;
5981;SDS011;3018;48.730;9.336;2022-08-11T05:35:10;5.13;;;2.80;;
5981;SDS011;3018;48.730;9.336;2022-08-11T05:37:39;4.97;;;2.80;;
5981;SDS011;3018;48.730;9.336;2022-08-11T05:40:07;3.10;;;2.72;;
5981;SDS011;3018;48.730;9.336;2022-08-11T05:42:54;3.47;;;2.72;;
5981;SDS011;3018;48.730;9.336;2022-08-11T05:45:39;2.60;;;2.50;;
5981;SDS011;3018;48.730;9.336;2022-08-11T05:48:23;2.60;;;2.40;;
5981;SDS011;3018;48.730;9.336;2022-08-11T05:51:12;2.80;;;2.40;;
5981;SDS011;3018;48.730;9.336;2022-08-11T05:53:56;4.43;;;3.50;;
5981;SDS011;3018;48.730;9.336;2022-08-11T05:56:42;6.53;;;3.33;;
5981;SDS011;3018;48.730;9.336;2022-08-11T05:59:11;7.22;;;2.85;;
5981;SDS011;3018;48.730;9.336;2022-08-11T06:01:39;3.20;;;2.90;;
5981;SDS011;3018;48.730;9.336;2022-08-11T06:04:07;4.05;;;3.58;;
5981;SDS011;3018;48.730;9.336;2022-08-11T06:06:45;4.88;;;3.42;;
5981;SDS011;3018;48.730;9.336;2022-08-11T06:09:15;4.10;;;3.80;;
5981;SDS011;3018;48.730;9.336;2022-08-11T06:11:45;4.20;;;3.78;;
5981;SDS011;3018;48.730;9.336;2022-08-11T06:14:11;4.07;;;3.70;;
5981;SDS011;3018;48.730;9.336;2022-08-11T06:16:41;3.83;;;3.53;;
5981;SDS011;3018;48.730;9.336;2022-08-11T06:19:07;4.82;;;3.63;;
5981;SDS011;3018;48.730;9.336;2022-08-11T06:21:34;4.30;;;3.90;;
5981;SDS011;3018;48.730;9.336;2022-08-11T06:24:02;4.18;;;3.88;;
5981;SDS011;3018;48.730;9.336;2022-08-11T06:26:28;4.47;;;2.95;;
5981;SDS011;3018;48.730;9.336;2022-08-11T06:28:55;4.32;;;3.63;;
5981;SDS011;3018;48.730;9.336;2022-08-11T06:31:23;6.22;;;3.35;;
5981;SDS011;3018;48.730;9.336;2022-08-11T06:33:55;9.65;;;3.40;;
5981;SDS011;3018;48.730;9.336;2022-08-11T06:36:25;10.27;;;5.30;;
5981;SDS011;3018;48.730;9.336;2022-08-11T06:38:58;12.40;;;5.63;;
5981;SDS011;3018;48.730;9.336;2022-08-11T06:41:29;14.63;;;7.32;;
5981;SDS011;3018;48.730;9.336;2022-08-11T06:44:04;11.45;;;6.72;;
5981;SDS011;3018;48.730;9.336;2022-08-11T06:46:32;9.88;;;5.97;;
5981;SDS011;3018;48.730;9.336;2022-08-11T06:49:04;8.48;;;5.53;;
5981;SDS011;3018;48.730;9.336;2022-08-11T06:51:51;11.80;;;4.80;;
5981;SDS011;3018;48.730;9.336;2022-08-11T06:54:16;4.78;;;3.75;;
5981;SDS011;3018;48.730;9.336;2022-08-11T06:56:44;5.10;;;3.15;;
5981;SDS011;3018;48.730;9.336;2022-08-11T06:59:43;3.60;;;2.80;;
5981;SDS011;3018;48.730;9.336;2022-08-11T07:02:29;2.78;;;2.58;;
5981;SDS011;3018;48.730;9.336;2022-08-11T07:04:59;4.03;;;3.25;;
5981;SDS011;3018;48.730;9.336;2022-08-11T07:10:27;6.82;;;4.53;;
5981;SDS011;3018;48.730;9.336;2022-08-11T07:13:16;3.15;;;2.17;;
5981;SDS011;3018;48.730;9.336;2022-08-11T07:16:02;2.72;;;2.53;;
5981;SDS011;3018;48.730;9.336;2022-08-11T07:18:30;2.92;;;2.72;;
5981;SDS011;3018;48.730;9.336;2022-08-11T07:21:18;4.18;;;3.83;;
5981;SDS011;3018;48.730;9.336;2022-08-11T07:24:06;3.65;;;3.35;;
5981;SDS011;3018;48.730;9.336;2022-08-11T07:26:52;2.75;;;2.30;;
5981;SDS011;3018;48.730;9.336;2022-08-11T07:29:36;4.85;;;2.83;;
5981;SDS011;3018;48.730;9.336;2022-08-11T07:32:14;3.40;;;2.42;;
5981;SDS011;3018;48.730;9.336;2022-08-11T07:34:45;4.00;;;2.80;;
5981;SDS011;3018;48.730;9.336;2022-08-11T07:37:14;2.33;;;2.22;;
5981;SDS011;3018;48.730;9.336;2022-08-11T07:39:43;7.70;;;2.55;;
5981;SDS011;3018;48.730;9.336;2022-08-11T07:42:12;8.07;;;5.45;;
5981;SDS011;3018;48.730;9.336;2022-08-11T07:44:39;4.97;;;2.50;;
5981;SDS011;3018;48.730;9.336;2022-08-11T07:47:21;4.15;;;3.10;;
5981;SDS011;3018;48.730;9.336;2022-08-11T07:50:05;2.65;;;2.55;;
5981;SDS011;3018;48.730;9.336;2022-08-11T07:52:52;3.15;;;2.40;;
5981;SDS011;3018;48.730;9.336;2022-08-11T07:55:20;3.33;;;3.10;;
5981;SDS011;3018;48.730;9.336;2022-08-11T07:57:49;6.88;;;2.70;;
5981;SDS011;3018;48.730;9.336;2022-08-11T08:00:34;2.65;;;2.45;;
5981;SDS011;3018;48.730;9.336;2022-08-11T08:03:19;3.60;;;2.65;;
5981;SDS011;3018;48.730;9.336;2022-08-11T08:06:03;1.90;;;1.80;;
5981;SDS011;3018;48.730;9.336;2022-08-11T08:08:49;3.83;;;2.30;;
5981;SDS011;3018;48.730;9.336;2022-08-11T08:11:33;3.50;;;2.65;;
5981;SDS011;3018;48.730;9.336;2022-08-11T08:14:17;7.20;;;2.25;;
5981;SDS011;3018;48.730;9.336;2022-08-11T08:17:01;3.47;;;2.33;;
5981;SDS011;3018;48.730;9.336;2022-08-11T08:19:45;6.88;;;3.97;;
5981;SDS011;3018;48.730;9.336;2022-08-11T08:22:14;2.50;;;2.28;;
5981;SDS011;3018;48.730;9.336;2022-08-11T08:24:42;2.20;;;2.00;;
5981;SDS011;3018;48.730;9.336;2022-08-11T08:27:09;5.18;;;1.85;;
5981;SDS011;3018;48.730;9.336;2022-08-11T08:29:37;6.55;;;2.33;;
5981;SDS011;3018;48.730;9.336;2022-08-11T08:32:21;7.80;;;2.50;;
5981;SDS011;3018;48.730;9.336;2022-08-11T08:34:48;2.17;;;2.08;;
5981;SDS011;3018;48.730;9.336;2022-08-11T08:37:16;2.50;;;2.40;;
5981;SDS011;3018;48.730;9.336;2022-08-11T08:39:45;2.05;;;1.95;;
5981;SDS011;3018;48.730;9.336;2022-08-11T08:42:12;2.80;;;1.88;;
5981;SDS011;3018;48.730;9.336;2022-08-11T08:44:39;5.57;;;1.92;;
5981;SDS011;3018;48.730;9.336;2022-08-11T08:47:06;3.08;;;1.85;;
5981;SDS011;3018;48.730;9.336;2022-08-11T08:49:38;2.13;;;1.98;;
5981;SDS011;3018;48.730;9.336;2022-08-11T08:52:07;2.53;;;2.42;;
5981;SDS011;3018;48.730;9.336;2022-08-11T08:54:34;3.38;;;1.90;;
5981;SDS011;3018;48.730;9.336;2022-08-11T08:57:03;1.98;;;1.88;;
5981;SDS011;3018;48.730;9.336;2022-08-11T08:59:30;4.43;;;1.90;;
5981;SDS011;3018;48.730;9.336;2022-08-11T09:01:58;1.90;;;1.80;;
5981;SDS011;3018;48.730;9.336;2022-08-11T09:04:26;1.90;;;1.80;;
5981;SDS011;3018;48.730;9.336;2022-08-11T09:06:52;5.18;;;2.40;;
5981;SDS011;3018;48.730;9.336;2022-08-11T09:09:19;2.35;;;1.92;;
5981;SDS011;3018;48.730;9.336;2022-08-11T09:11:46;2.95;;;1.92;;
5981;SDS011;3018;48.730;9.336;2022-08-11T09:14:16;2.40;;;2.20;;
5981;SDS011;3018;48.730;9.336;2022-08-11T09:16:43;2.00;;;2.00;;
5981;SDS011;3018;48.730;9.336;2022-08-11T09:19:11;3.00;;;2.67;;
5981;SDS011;3018;48.730;9.336;2022-08-11T09:21:40;4.65;;;2.03;;
5981;SDS011;3018;48.730;9.336;2022-08-11T09:24:07;3.33;;;1.95;;
5981;SDS011;3018;48.730;9.336;2022-08-11T09:26:51;4.13;;;1.75;;
5981;SDS011;3018;48.730;9.336;2022-08-11T09:29:28;3.13;;;2.22;;
5981;SDS011;3018;48.730;9.336;2022-08-11T09:31:55;1.85;;;1.75;;
5981;SDS011;3018;48.730;9.336;2022-08-11T09:34:23;2.00;;;1.90;;
5981;SDS011;3018;48.730;9.336;2022-08-11T09:36:50;1.88;;;1.70;;
5981;SDS011;3018;48.730;9.336;2022-08-11T09:39:35;6.47;;;2.20;;
5981;SDS011;3018;48.730;9.336;2022-08-11T09:42:20;9.00;;;2.10;;
5981;SDS011;3018;48.730;9.336;2022-08-11T09:44:48;4.50;;;1.90;;
5981;SDS011;3018;48.730;9.336;2022-08-11T09:47:18;4.65;;;2.63;;
5981;SDS011;3018;48.730;9.336;2022-08-11T09:49:47;2.00;;;1.90;;
5981;SDS011;3018;48.730;9.336;2022-08-11T09:52:15;2.35;;;1.92;;
5981;SDS011;3018;48.730;9.336;2022-08-11T09:54:42;4.22;;;1.77;;
5981;SDS011;3018;48.730;9.336;2022-08-11T09:57:09;2.53;;;2.42;;
5981;SDS011;3018;48.730;9.336;2022-08-11T09:59:54;4.32;;;2.20;;
5981;SDS011;3018;48.730;9.336;2022-08-11T10:02:22;2.75;;;2.50;;
5981;SDS011;3018;48.730;9.336;2022-08-11T10:04:50;2.40;;;1.73;;
5981;SDS011;3018;48.730;9.336;2022-08-11T10:07:18;5.28;;;1.83;;
5981;SDS011;3018;48.730;9.336;2022-08-11T10:09:45;1.85;;;1.75;;
5981;SDS011;3018;48.730;9.336;2022-08-11T10:12:16;2.90;;;1.83;;
5981;SDS011;3018;48.730;9.336;2022-08-11T10:14:44;1.50;;;1.50;;
5981;SDS011;3018;48.730;9.336;2022-08-11T10:17:32;1.48;;;1.40;;
5981;SDS011;3018;48.730;9.336;2022-08-11T10:20:00;2.30;;;1.80;;
5981;SDS011;3018;48.730;9.336;2022-08-11T10:22:28;3.35;;;1.70;;
5981;SDS011;3018;48.730;9.336;2022-08-11T10:25:12;3.17;;;2.92;;
5981;SDS011;3018;48.730;9.336;2022-08-11T10:27:56;2.80;;;1.50;;
5981;SDS011;3018;48.730;9.336;2022-08-11T10:30:24;2.08;;;1.70;;
5981;SDS011;3018;48.730;9.336;2022-08-11T10:33:10;3.10;;;1.52;;
5981;SDS011;3018;48.730;9.336;2022-08-11T10:35:55;2.75;;;1.75;;
5981;SDS011;3018;48.730;9.336;2022-08-11T10:38:21;1.40;;;1.40;;
5981;SDS011;3018;48.730;9.336;2022-08-11T10:40:47;1.90;;;1.80;;
5981;SDS011;3018;48.730;9.336;2022-08-11T10:43:36;4.85;;;1.20;;
5981;SDS011;3018;48.730;9.336;2022-08-11T10:46:02;1.90;;;1.23;;
5981;SDS011;3018;48.730;9.336;2022-08-11T10:48:47;2.38;;;1.38;;
5981;SDS011;3018;48.730;9.336;2022-08-11T10:51:13;4.38;;;1.48;;
5981;SDS011;3018;48.730;9.336;2022-08-11T10:53:42;1.30;;;1.15;;
5981;SDS011;3018;48.730;9.336;2022-08-11T10:56:27;3.28;;;1.42;;
5981;SDS011;3018;48.730;9.336;2022-08-11T10:59:11;2.58;;;1.48;;
5981;SDS011;3018;48.730;9.336;2022-08-11T11:01:40;1.17;;;1.17;;
5981;SDS011;3018;48.730;9.336;2022-08-11T11:04:11;2.45;;;1.25;;
5981;SDS011;3018;48.730;9.336;2022-08-11T11:06:40;2.30;;;1.50;;
5981;SDS011;3018;48.730;9.336;2022-08-11T11:09:12;1.20;;;1.20;;
5981;SDS011;3018;48.730;9.336;2022-08-11T11:11:42;1.40;;;1.30;;
5981;SDS011;3018;48.730;9.336;2022-08-11T11:14:41;2.80;;;1.10;;
5981;SDS011;3018;48.730;9.336;2022-08-11T11:17:26;2.33;;;1.60;;
5981;SDS011;3018;48.730;9.336;2022-08-11T11:20:15;2.70;;;1.30;;
5981;SDS011;3018;48.730;9.336;2022-08-11T11:22:42;1.60;;;1.20;;
5981;SDS011;3018;48.730;9.336;2022-08-11T11:25:24;3.63;;;1.08;;
5981;SDS011;3018;48.730;9.336;2022-08-11T11:27:58;1.40;;;1.30;;
5981;SDS011;3018;48.730;9.336;2022-08-11T11:30:26;1.75;;;1.35;;
5981;SDS011;3018;48.730;9.336;2022-08-11T11:32:58;1.52;;;1.23;;
5981;SDS011;3018;48.730;9.336;2022-08-11T11:35:32;2.58;;;1.30;;
5981;SDS011;3018;48.730;9.336;2022-08-11T11:38:01;1.20;;;1.15;;
5981;SDS011;3018;48.730;9.336;2022-08-11T11:40:27;1.00;;;1.00;;
5981;SDS011;3018;48.730;9.336;2022-08-11T11:42:55;1.13;;;1.10;;
5981;SDS011;3018;48.730;9.336;2022-08-11T11:45:22;4.53;;;1.30;;
5981;SDS011;3018;48.730;9.336;2022-08-11T11:47:49;1.10;;;1.10;;
5981;SDS011;3018;48.730;9.336;2022-08-11T11:50:20;1.75;;;1.20;;
5981;SDS011;3018;48.730;9.336;2022-08-11T11:52:49;0.95;;;0.95;;
5981;SDS011;3018;48.730;9.336;2022-08-11T11:55:16;4.68;;;1.30;;
5981;SDS011;3018;48.730;9.336;2022-08-11T11:57:43;2.83;;;1.40;;
5981;SDS011;3018;48.730;9.336;2022-08-11T12:00:27;1.40;;;1.25;;
5981;SDS011;3018;48.730;9.336;2022-08-11T12:03:11;1.48;;;1.10;;
5981;SDS011;3018;48.730;9.336;2022-08-11T12:05:38;1.58;;;1.45;;
5981;SDS011;3018;48.730;9.336;2022-08-11T12:08:07;2.13;;;1.30;;
5981;SDS011;3018;48.730;9.336;2022-08-11T12:10:42;2.50;;;1.15;;
5981;SDS011;3018;48.730;9.336;2022-08-11T12:13:09;3.67;;;1.25;;
5981;SDS011;3018;48.730;9.336;2022-08-11T12:15:53;2.75;;;1.33;;
5981;SDS011;3018;48.730;9.336;2022-08-11T12:18:20;2.85;;;1.60;;
5981;SDS011;3018;48.730;9.336;2022-08-11T12:20:46;1.80;;;1.10;;
5981;SDS011;3018;48.730;9.336;2022-08-11T12:23:14;1.85;;;1.20;;
5981;SDS011;3018;48.730;9.336;2022-08-11T12:25:58;1.75;;;1.65;;
5981;SDS011;3018;48.730;9.336;2022-08-11T12:28:51;1.40;;;1.20;;
5981;SDS011;3018;48.730;9.336;2022-08-11T12:31:17;3.05;;;1.30;;
5981;SDS011;3018;48.730;9.336;2022-08-11T12:33:49;0.85;;;0.80;;
5981;SDS011;3018;48.730;9.336;2022-08-11T12:36:17;4.20;;;1.20;;
5981;SDS011;3018;48.730;9.336;2022-08-11T12:38:46;1.52;;;1.45;;
5981;SDS011;3018;48.730;9.336;2022-08-11T12:41:13;1.35;;;1.25;;
5981;SDS011;3018;48.730;9.336;2022-08-11T12:43:57;16.38;;;1.55;;
5981;SDS011;3018;48.730;9.336;2022-08-11T12:46:42;2.42;;;1.30;;
5981;SDS011;3018;48.730;9.336;2022-08-11T12:49:11;2.08;;;1.20;;
5981;SDS011;3018;48.730;9.336;2022-08-11T12:51:55;2.60;;;1.27;;
5981;SDS011;3018;48.730;9.336;2022-08-11T12:54:28;4.05;;;1.40;;
5981;SDS011;3018;48.730;9.336;2022-08-11T12:56:57;1.17;;;1.00;;
5981;SDS011;3018;48.730;9.336;2022-08-11T12:59:42;2.10;;;1.13;;
5981;SDS011;3018;48.730;9.336;2022-08-11T13:02:26;4.85;;;1.20;;
5981;SDS011;3018;48.730;9.336;2022-08-11T13:05:11;6.97;;;1.48;;
5981;SDS011;3018;48.730;9.336;2022-08-11T13:07:38;4.40;;;1.17;;
5981;SDS011;3018;48.730;9.336;2022-08-11T13:10:09;3.50;;;1.02;;
5981;SDS011;3018;48.730;9.336;2022-08-11T13:12:36;1.13;;;1.13;;
5981;SDS011;3018;48.730;9.336;2022-08-11T13:15:15;3.53;;;1.23;;
5981;SDS011;3018;48.730;9.336;2022-08-11T13:17:41;1.67;;;1.25;;
5981;SDS011;3018;48.730;9.336;2022-08-11T13:20:09;1.33;;;1.17;;
5981;SDS011;3018;48.730;9.336;2022-08-11T13:22:36;1.83;;;1.00;;
5981;SDS011;3018;48.730;9.336;2022-08-11T13:25:03;1.05;;;1.02;;
5981;SDS011;3018;48.730;9.336;2022-08-11T13:27:31;1.95;;;1.17;;
5981;SDS011;3018;48.730;9.336;2022-08-11T13:29:57;1.45;;;1.45;;
5981;SDS011;3018;48.730;9.336;2022-08-11T13:32:38;3.47;;;1.48;;
5981;SDS011;3018;48.730;9.336;2022-08-11T13:35:05;3.03;;;1.23;;
5981;SDS011;3018;48.730;9.336;2022-08-11T13:37:31;1.67;;;1.02;;
5981;SDS011;3018;48.730;9.336;2022-08-11T13:39:59;5.07;;;1.13;;
5981;SDS011;3018;48.730;9.336;2022-08-11T13:42:26;2.17;;;0.98;;
5981;SDS011;3018;48.730;9.336;2022-08-11T13:44:54;1.10;;;1.10;;
5981;SDS011;3018;48.730;9.336;2022-08-11T13:47:21;11.73;;;1.52;;
5981;SDS011;3018;48.730;9.336;2022-08-11T13:49:49;4.43;;;1.42;;
5981;SDS011;3018;48.730;9.336;2022-08-11T13:52:16;4.53;;;1.20;;
5981;SDS011;3018;48.730;9.336;2022-08-11T13:54:44;0.90;;;0.90;;
5981;SDS011;3018;48.730;9.336;2022-08-11T13:57:12;3.03;;;1.33;;
5981;SDS011;3018;48.730;9.336;2022-08-11T13:59:40;3.60;;;3.35;;
5981;SDS011;3018;48.730;9.336;2022-08-11T14:02:13;7.82;;;3.40;;
5981;SDS011;3018;48.730;9.336;2022-08-11T14:04:40;2.47;;;1.10;;
5981;SDS011;3018;48.730;9.336;2022-08-11T14:07:08;1.92;;;1.00;;
5981;SDS011;3018;48.730;9.336;2022-08-11T14:09:35;4.10;;;1.20;;
5981;SDS011;3018;48.730;9.336;2022-08-11T14:12:05;5.78;;;1.15;;
5981;SDS011;3018;48.730;9.336;2022-08-11T14:14:50;1.85;;;1.10;;
5981;SDS011;3018;48.730;9.336;2022-08-11T14:17:19;1.55;;;1.20;;
5981;SDS011;3018;48.730;9.336;2022-08-11T14:19:46;1.15;;;1.02;;
5981;SDS011;3018;48.730;9.336;2022-08-11T14:22:15;3.13;;;1.00;;
5981;SDS011;3018;48.730;9.336;2022-08-11T14:24:42;2.72;;;1.08;;
5981;SDS011;3018;48.730;9.336;2022-08-11T14:27:13;1.40;;;1.17;;
5981;SDS011;3018;48.730;9.336;2022-08-11T14:29:40;1.20;;;1.13;;
5981;SDS011;3018;48.730;9.336;2022-08-11T14:32:09;2.35;;;1.08;;
5981;SDS011;3018;48.730;9.336;2022-08-11T14:34:38;1.88;;;1.05;;
5981;SDS011;3018;48.730;9.336;2022-08-11T14:37:05;1.48;;;1.20;;
5981;SDS011;3018;48.730;9.336;2022-08-11T14:39:38;1.42;;;1.15;;
5981;SDS011;3018;48.730;9.336;2022-08-11T14:42:05;1.85;;;1.10;;
5981;SDS011;3018;48.730;9.336;2022-08-11T14:44:50;2.85;;;1.00;;
5981;SDS011;3018;48.730;9.336;2022-08-11T14:47:34;1.30;;;1.00;;
5981;SDS011;3018;48.730;9.336;2022-08-11T14:50:03;1.20;;;1.10;;
5981;SDS011;3018;48.730;9.336;2022-08-11T14:52:30;1.27;;;1.17;;
5981;SDS011;3018;48.730;9.336;2022-08-11T14:54:59;3.03;;;1.45;;
5981;SDS011;3018;48.730;9.336;2022-08-11T14:57:43;3.05;;;0.90;;
5981;SDS011;3018;48.730;9.336;2022-08-11T15:00:11;1.00;;;1.00;;
5981;SDS011;3018;48.730;9.336;2022-08-11T15:02:39;2.47;;;1.10;;
5981;SDS011;3018;48.730;9.336;2022-08-11T15:05:26;3.60;;;1.20;;
5981;SDS011;3018;48.730;9.336;2022-08-11T15:07:52;1.95;;;1.17;;
5981;SDS011;3018;48.730;9.336;2022-08-11T15:10:19;3.15;;;0.90;;
5981;SDS011;3018;48.730;9.336;2022-08-11T15:12:46;0.95;;;0.95;;
5981;SDS011;3018;48.730;9.336;2022-08-11T15:15:13;1.65;;;1.27;;
5981;SDS011;3018;48.730;9.336;2022-08-11T15:17:58;1.27;;;1.00;;
5981;SDS011;3018;48.730;9.336;2022-08-11T15:20:27;1.10;;;1.00;;
5981;SDS011;3018;48.730;9.336;2022-08-11T15:23:12;1.33;;;1.20;;
5981;SDS011;3018;48.730;9.336;2022-08-11T15:25:56;2.60;;;1.20;;
5981;SDS011;3018;48.730;9.336;2022-08-11T15:28:24;5.53;;;1.35;;
5981;SDS011;3018;48.730;9.336;2022-08-11T15:31:09;1.40;;;1.30;;
5981;SDS011;3018;48.730;9.336;2022-08-11T15:33:54;1.30;;;1.30;;
5981;SDS011;3018;48.730;9.336;2022-08-11T15:36:41;2.15;;;1.25;;
5981;SDS011;3018;48.730;9.336;2022-08-11T15:39:44;2.13;;;1.20;;
5981;SDS011;3018;48.730;9.336;2022-08-11T15:42:33;4.05;;;1.20;;
5981;SDS011;3018;48.730;9.336;2022-08-11T15:45:19;1.17;;;1.17;;
5981;SDS011;3018;48.730;9.336;2022-08-11T15:48:05;3.50;;;1.30;;
5981;SDS011;3018;48.730;9.336;2022-08-11T15:50:33;1.70;;;1.60;;
5981;SDS011;3018;48.730;9.336;2022-08-11T15:53:04;1.85;;;1.10;;
5981;SDS011;3018;48.730;9.336;2022-08-11T15:55:32;1.40;;;1.30;;
5981;SDS011;3018;48.730;9.336;2022-08-11T15:58:00;0.98;;;0.98;;
5981;SDS011;3018;48.730;9.336;2022-08-11T16:00:44;4.03;;;1.30;;
5981;SDS011;3018;48.730;9.336;2022-08-11T16:03:29;2.92;;;1.20;;
5981;SDS011;3018;48.730;9.336;2022-08-11T16:06:15;2.58;;;1.35;;
5981;SDS011;3018;48.730;9.336;2022-08-11T16:08:43;2.28;;;1.23;;
5981;SDS011;3018;48.730;9.336;2022-08-11T16:11:09;1.95;;;1.33;;
5981;SDS011;3018;48.730;9.336;2022-08-11T16:13:36;1.05;;;0.98;;
5981;SDS011;3018;48.730;9.336;2022-08-11T16:16:21;5.28;;;1.10;;
5981;SDS011;3018;48.730;9.336;2022-08-11T16:18:49;1.45;;;1.35;;
5981;SDS011;3018;48.730;9.336;2022-08-11T16:21:18;5.95;;;0.98;;
5981;SDS011;3018;48.730;9.336;2022-08-11T16:23:49;2.42;;;1.50;;
5981;SDS011;3018;48.730;9.336;2022-08-11T16:26:19;2.20;;;1.05;;
5981;SDS011;3018;48.730;9.336;2022-08-11T16:28:48;1.50;;;1.20;;
5981;SDS011;3018;48.730;9.336;2022-08-11T16:31:15;1.45;;;0.90;;
5981;SDS011;3018;48.730;9.336;2022-08-11T16:33:42;1.58;;;1.17;;
5981;SDS011;3018;48.730;9.336;2022-08-11T16:36:09;3.38;;;1.30;;